sensor_id;sensor_type;location;lat;lon;timestamp;temperature;humidity
43607;DHT22;29197;44.788;10.366;2022-11-12T08:21:42;12.70;99.90
43607;DHT22;29197;44.788;10.366;2022-11-12T08:24:32;12.80;99.90
43607;DHT22;29197;44.788;10.366;2022-11-12T08:27:21;12.90;99.90
43607;DHT22;29197;44.788;10.366;2022-11-12T08:30:11;12.90;99.90
43607;DHT22;29197;44.788;10.366;2022-11-12T08:33:03;13.00;99.90
43607;DHT22;29197;44.788;10.366;2022-11-12T08:35:54;13.10;99.90
43607;DHT22;29197;44.788;10.366;2022-11-12T08:38:44;13.10;99.90
43607;DHT22;29197;44.788;10.366;2022-11-12T08:41:33;13.20;99.90
43607;DHT22;29197;44.788;10.366;2022-11-12T08:44:22;13.30;99.90
43607;DHT22;29197;44.788;10.366;2022-11-12T08:50:02;13.50;99.90
43607;DHT22;29197;44.788;10.366;2022-11-12T08:55:42;13.60;99.90
43607;DHT22;29197;44.788;10.366;2022-11-12T09:01:20;13.70;99.90
43607;DHT22;29197;44.788;10.366;2022-11-12T09:04:10;13.70;99.90
43607;DHT22;29197;44.788;10.366;2022-11-12T09:09:54;13.80;99.90
43607;DHT22;29197;44.788;10.366;2022-11-12T09:12:44;13.90;99.90
43607;DHT22;29197;44.788;10.366;2022-11-12T09:15:38;13.80;99.90
43607;DHT22;29197;44.788;10.366;2022-11-12T09:18:27;13.80;99.90
43607;DHT22;29197;44.788;10.366;2022-11-12T09:21:16;13.80;99.90
43607;DHT22;29197;44.788;10.366;2022-11-12T09:24:07;13.80;99.90
43607;DHT22;29197;44.788;10.366;2022-11-12T09:26:57;13.70;99.90
43607;DHT22;29197;44.788;10.366;2022-11-12T09:29:46;13.60;99.90
43607;DHT22;29197;44.788;10.366;2022-11-12T09:32:35;13.20;99.90
43607;DHT22;29197;44.788;10.366;2022-11-12T09:35:24;13.80;99.90
43607;DHT22;29197;44.788;10.366;2022-11-12T09:38:13;13.90;99.90
43607;DHT22;29197;44.788;10.366;2022-11-12T09:44:09;14.20;99.90
43607;DHT22;29197;44.788;10.366;2022-11-12T09:47:00;14.20;99.90
43607;DHT22;29197;44.788;10.366;2022-11-12T09:49:56;14.10;99.90
43607;DHT22;29197;44.788;10.366;2022-11-12T09:52:47;14.10;99.90
43607;DHT22;29197;44.788;10.366;2022-11-12T09:55:39;14.10;99.90
43607;DHT22;29197;44.788;10.366;2022-11-12T09:58:29;14.30;99.90
43607;DHT22;29197;44.788;10.366;2022-11-12T10:01:23;14.40;99.90
43607;DHT22;29197;44.788;10.366;2022-11-12T10:07:36;14.50;99.90
43607;DHT22;29197;44.788;10.366;2022-11-12T10:10:34;14.50;99.90
43607;DHT22;29197;44.788;10.366;2022-11-12T10:13:40;14.50;99.90
43607;DHT22;29197;44.788;10.366;2022-11-12T10:16:50;14.40;99.90
43607;DHT22;29197;44.788;10.366;2022-11-12T10:19:52;14.50;99.90
43607;DHT22;29197;44.788;10.366;2022-11-12T10:23:03;14.60;99.90
43607;DHT22;29197;44.788;10.366;2022-11-12T10:25:57;14.70;99.90
43607;DHT22;29197;44.788;10.366;2022-11-12T10:28:48;14.70;99.90
43607;DHT22;29197;44.788;10.366;2022-11-12T10:31:37;14.70;99.90
43607;DHT22;29197;44.788;10.366;2022-11-12T10:34:28;14.70;99.90
43607;DHT22;29197;44.788;10.366;2022-11-12T10:58:14;14.50;99.90
43607;DHT22;29197;44.788;10.366;2022-11-12T11:01:14;14.60;99.90
43607;DHT22;29197;44.788;10.366;2022-11-12T11:04:04;14.50;99.90
43607;DHT22;29197;44.788;10.366;2022-11-12T11:07:04;14.60;99.90
43607;DHT22;29197;44.788;10.366;2022-11-12T11:09:55;14.70;99.90
43607;DHT22;29197;44.788;10.366;2022-11-12T11:12:44;14.70;99.90
43607;DHT22;29197;44.788;10.366;2022-11-12T11:15:35;14.80;99.90
43607;DHT22;29197;44.788;10.366;2022-11-12T11:18:26;14.80;99.90
43607;DHT22;29197;44.788;10.366;2022-11-12T11:21:34;14.80;99.90
43607;DHT22;29197;44.788;10.366;2022-11-12T11:24:35;14.90;99.90
43607;DHT22;29197;44.788;10.366;2022-11-12T11:27:31;14.90;99.90
43607;DHT22;29197;44.788;10.366;2022-11-12T11:30:22;14.90;99.90
43607;DHT22;29197;44.788;10.366;2022-11-12T11:33:23;14.90;99.90
43607;DHT22;29197;44.788;10.366;2022-11-12T11:36:19;15.00;99.90
43607;DHT22;29197;44.788;10.366;2022-11-12T11:39:18;15.00;99.90
43607;DHT22;29197;44.788;10.366;2022-11-12T11:42:19;15.10;99.90
43607;DHT22;29197;44.788;10.366;2022-11-12T11:45:15;15.20;99.90
43607;DHT22;29197;44.788;10.366;2022-11-12T11:48:12;15.30;99.90
43607;DHT22;29197;44.788;10.366;2022-11-12T11:51:16;15.20;99.90
43607;DHT22;29197;44.788;10.366;2022-11-12T11:54:32;15.30;99.90
43607;DHT22;29197;44.788;10.366;2022-11-12T11:57:28;15.20;99.90
43607;DHT22;29197;44.788;10.366;2022-11-12T12:00:19;15.30;99.90
43607;DHT22;29197;44.788;10.366;2022-11-12T12:03:17;15.30;99.90
43607;DHT22;29197;44.788;10.366;2022-11-12T12:06:19;15.30;99.90
43607;DHT22;29197;44.788;10.366;2022-11-12T12:09:20;15.30;99.90
43607;DHT22;29197;44.788;10.366;2022-11-12T12:12:21;15.40;99.90
43607;DHT22;29197;44.788;10.366;2022-11-12T12:15:38;15.40;99.90
43607;DHT22;29197;44.788;10.366;2022-11-12T12:18:35;15.40;99.90
43607;DHT22;29197;44.788;10.366;2022-11-12T12:21:32;15.40;99.90
43607;DHT22;29197;44.788;10.366;2022-11-12T12:24:26;15.50;99.90
43607;DHT22;29197;44.788;10.366;2022-11-12T12:27:19;15.40;99.90
43607;DHT22;29197;44.788;10.366;2022-11-12T12:30:16;15.50;99.90
43607;DHT22;29197;44.788;10.366;2022-11-12T12:33:16;15.50;99.90
43607;DHT22;29197;44.788;10.366;2022-11-12T12:36:10;15.60;99.90
43607;DHT22;29197;44.788;10.366;2022-11-12T12:39:11;15.50;99.90
43607;DHT22;29197;44.788;10.366;2022-11-12T12:44:56;15.60;99.90
43607;DHT22;29197;44.788;10.366;2022-11-12T12:47:51;15.60;99.90
43607;DHT22;29197;44.788;10.366;2022-11-12T12:50:42;15.60;99.90
43607;DHT22;29197;44.788;10.366;2022-11-12T12:53:33;15.60;99.90
43607;DHT22;29197;44.788;10.366;2022-11-12T12:56:43;15.50;99.90
43607;DHT22;29197;44.788;10.366;2022-11-12T12:59:34;15.60;99.90
43607;DHT22;29197;44.788;10.366;2022-11-12T13:02:24;15.50;99.90
43607;DHT22;29197;44.788;10.366;2022-11-12T13:05:29;15.40;99.90
43607;DHT22;29197;44.788;10.366;2022-11-12T13:08:21;15.50;99.90
43607;DHT22;29197;44.788;10.366;2022-11-12T13:11:47;15.50;99.90
43607;DHT22;29197;44.788;10.366;2022-11-12T13:15:12;15.50;99.90
43607;DHT22;29197;44.788;10.366;2022-11-12T13:18:06;15.40;99.90
43607;DHT22;29197;44.788;10.366;2022-11-12T13:21:09;15.50;99.90
43607;DHT22;29197;44.788;10.366;2022-11-12T13:24:01;15.40;99.90
43607;DHT22;29197;44.788;10.366;2022-11-12T13:26:59;15.30;99.90
43607;DHT22;29197;44.788;10.366;2022-11-12T13:29:48;15.30;99.90
43607;DHT22;29197;44.788;10.366;2022-11-12T13:32:40;15.30;99.90
43607;DHT22;29197;44.788;10.366;2022-11-12T13:35:33;15.30;99.90
43607;DHT22;29197;44.788;10.366;2022-11-12T13:38:23;15.20;99.90
43607;DHT22;29197;44.788;10.366;2022-11-12T13:41:15;15.30;99.90
43607;DHT22;29197;44.788;10.366;2022-11-12T13:44:13;15.20;99.90
43607;DHT22;29197;44.788;10.366;2022-11-12T13:47:03;15.30;99.90
43607;DHT22;29197;44.788;10.366;2022-11-12T13:49:54;15.20;99.90
43607;DHT22;29197;44.788;10.366;2022-11-12T13:52:45;15.20;99.90
43607;DHT22;29197;44.788;10.366;2022-11-12T13:55:34;15.20;99.90
43607;DHT22;29197;44.788;10.366;2022-11-12T13:58:27;15.10;99.90
43607;DHT22;29197;44.788;10.366;2022-11-12T14:01:18;15.10;99.90
43607;DHT22;29197;44.788;10.366;2022-11-12T14:04:10;15.20;99.90
43607;DHT22;29197;44.788;10.366;2022-11-12T14:07:08;15.20;99.90
43607;DHT22;29197;44.788;10.366;2022-11-12T14:10:07;15.20;99.90
43607;DHT22;29197;44.788;10.366;2022-11-12T14:13:11;15.10;99.90
43607;DHT22;29197;44.788;10.366;2022-11-12T14:16:24;15.20;99.90
43607;DHT22;29197;44.788;10.366;2022-11-12T14:19:41;15.20;99.90
43607;DHT22;29197;44.788;10.366;2022-11-12T14:22:38;15.20;99.90
43607;DHT22;29197;44.788;10.366;2022-11-12T14:25:28;15.20;99.90
43607;DHT22;29197;44.788;10.366;2022-11-12T14:28:25;15.20;99.90
43607;DHT22;29197;44.788;10.366;2022-11-12T14:31:24;15.20;99.90
43607;DHT22;29197;44.788;10.366;2022-11-12T14:34:21;15.20;99.90
43607;DHT22;29197;44.788;10.366;2022-11-12T14:37:28;15.20;99.90
43607;DHT22;29197;44.788;10.366;2022-11-12T14:40:25;15.20;99.90
43607;DHT22;29197;44.788;10.366;2022-11-12T14:43:23;15.20;99.90
43607;DHT22;29197;44.788;10.366;2022-11-12T14:46:24;15.20;99.90
43607;DHT22;29197;44.788;10.366;2022-11-12T14:49:17;15.20;99.90
43607;DHT22;29197;44.788;10.366;2022-11-12T14:52:10;15.20;99.90
43607;DHT22;29197;44.788;10.366;2022-11-12T14:55:06;15.20;99.90
43607;DHT22;29197;44.788;10.366;2022-11-12T14:57:59;15.20;99.90
43607;DHT22;29197;44.788;10.366;2022-11-12T15:00:50;15.20;99.90
43607;DHT22;29197;44.788;10.366;2022-11-12T15:03:40;15.20;99.90
43607;DHT22;29197;44.788;10.366;2022-11-12T15:06:31;15.20;99.90
43607;DHT22;29197;44.788;10.366;2022-11-12T15:09:36;15.10;99.90
43607;DHT22;29197;44.788;10.366;2022-11-12T15:12:28;15.10;99.90
43607;DHT22;29197;44.788;10.366;2022-11-12T15:15:19;15.10;99.90
43607;DHT22;29197;44.788;10.366;2022-11-12T15:18:15;15.10;99.90
43607;DHT22;29197;44.788;10.366;2022-11-12T15:21:12;15.10;99.90
43607;DHT22;29197;44.788;10.366;2022-11-12T15:24:06;15.10;99.90
43607;DHT22;29197;44.788;10.366;2022-11-12T15:26:57;15.00;99.90
43607;DHT22;29197;44.788;10.366;2022-11-12T15:29:47;15.00;99.90
43607;DHT22;29197;44.788;10.366;2022-11-12T15:32:36;15.00;99.90
43607;DHT22;29197;44.788;10.366;2022-11-12T15:35:33;15.00;99.90
43607;DHT22;29197;44.788;10.366;2022-11-12T15:38:26;15.00;99.90
43607;DHT22;29197;44.788;10.366;2022-11-12T15:41:21;14.90;99.90
43607;DHT22;29197;44.788;10.366;2022-11-12T15:44:12;14.90;99.90
43607;DHT22;29197;44.788;10.366;2022-11-12T15:47:02;14.90;99.90
43607;DHT22;29197;44.788;10.366;2022-11-12T15:49:52;14.90;99.90
43607;DHT22;29197;44.788;10.366;2022-11-12T15:52:42;14.80;99.90
43607;DHT22;29197;44.788;10.366;2022-11-12T15:55:35;14.80;99.90
43607;DHT22;29197;44.788;10.366;2022-11-12T15:58:30;14.80;99.90
43607;DHT22;29197;44.788;10.366;2022-11-12T16:01:21;14.80;99.90
43607;DHT22;29197;44.788;10.366;2022-11-12T16:04:11;14.70;99.90
43607;DHT22;29197;44.788;10.366;2022-11-12T16:07:00;14.70;99.90
43607;DHT22;29197;44.788;10.366;2022-11-12T16:09:52;14.70;99.90
43607;DHT22;29197;44.788;10.366;2022-11-12T16:12:44;14.60;99.90
43607;DHT22;29197;44.788;10.366;2022-11-12T16:15:35;14.50;99.90
43607;DHT22;29197;44.788;10.366;2022-11-12T16:18:24;14.60;99.90
43607;DHT22;29197;44.788;10.366;2022-11-12T16:21:14;14.50;99.90
43607;DHT22;29197;44.788;10.366;2022-11-12T16:24:07;14.50;99.90
43607;DHT22;29197;44.788;10.366;2022-11-12T16:26:57;14.50;99.90
43607;DHT22;29197;44.788;10.366;2022-11-12T16:29:49;14.50;99.90
43607;DHT22;29197;44.788;10.366;2022-11-12T16:32:38;14.40;99.90
43607;DHT22;29197;44.788;10.366;2022-11-12T16:35:28;14.40;99.90
43607;DHT22;29197;44.788;10.366;2022-11-12T16:38:19;14.40;99.90
43607;DHT22;29197;44.788;10.366;2022-11-12T16:41:10;14.30;99.90
43607;DHT22;29197;44.788;10.366;2022-11-12T16:43:59;14.30;99.90
43607;DHT22;29197;44.788;10.366;2022-11-12T16:46:50;14.30;99.90
43607;DHT22;29197;44.788;10.366;2022-11-12T16:49:40;14.30;99.90
43607;DHT22;29197;44.788;10.366;2022-11-12T16:52:29;14.30;99.90
43607;DHT22;29197;44.788;10.366;2022-11-12T16:55:19;14.30;99.90
43607;DHT22;29197;44.788;10.366;2022-11-12T16:58:11;14.20;99.90
43607;DHT22;29197;44.788;10.366;2022-11-12T17:01:00;14.30;99.90
43607;DHT22;29197;44.788;10.366;2022-11-12T17:03:52;14.20;99.90
43607;DHT22;29197;44.788;10.366;2022-11-12T17:06:41;14.20;99.90
43607;DHT22;29197;44.788;10.366;2022-11-12T17:09:31;14.10;99.90
43607;DHT22;29197;44.788;10.366;2022-11-12T17:12:20;14.10;99.90
43607;DHT22;29197;44.788;10.366;2022-11-12T17:15:09;14.10;99.90
43607;DHT22;29197;44.788;10.366;2022-11-12T17:17:58;14.10;99.90
43607;DHT22;29197;44.788;10.366;2022-11-12T17:20:49;14.10;99.90
43607;DHT22;29197;44.788;10.366;2022-11-12T17:23:38;14.00;99.90
43607;DHT22;29197;44.788;10.366;2022-11-12T17:26:28;13.80;99.90
43607;DHT22;29197;44.788;10.366;2022-11-12T17:29:18;13.80;99.90
43607;DHT22;29197;44.788;10.366;2022-11-12T17:32:07;13.80;99.90
43607;DHT22;29197;44.788;10.366;2022-11-12T17:34:56;13.80;99.90
43607;DHT22;29197;44.788;10.366;2022-11-12T17:37:47;13.90;99.90
43607;DHT22;29197;44.788;10.366;2022-11-12T17:40:37;13.90;99.90
43607;DHT22;29197;44.788;10.366;2022-11-12T17:43:27;14.00;99.90
43607;DHT22;29197;44.788;10.366;2022-11-12T17:46:17;13.90;99.90
43607;DHT22;29197;44.788;10.366;2022-11-12T17:49:07;13.90;99.90
43607;DHT22;29197;44.788;10.366;2022-11-12T17:51:56;13.90;99.90
43607;DHT22;29197;44.788;10.366;2022-11-12T17:54:47;13.90;99.90
43607;DHT22;29197;44.788;10.366;2022-11-12T17:57:36;13.90;99.90
43607;DHT22;29197;44.788;10.366;2022-11-12T18:00:25;13.90;99.90
43607;DHT22;29197;44.788;10.366;2022-11-12T18:03:15;13.90;99.90
43607;DHT22;29197;44.788;10.366;2022-11-12T18:06:05;13.90;99.90
43607;DHT22;29197;44.788;10.366;2022-11-12T18:08:55;13.80;99.90
43607;DHT22;29197;44.788;10.366;2022-11-12T18:11:48;13.80;99.90
43607;DHT22;29197;44.788;10.366;2022-11-12T18:14:41;13.80;99.90
43607;DHT22;29197;44.788;10.366;2022-11-12T18:17:31;13.90;99.90
43607;DHT22;29197;44.788;10.366;2022-11-12T18:20:21;13.90;99.90
43607;DHT22;29197;44.788;10.366;2022-11-12T18:23:10;14.30;99.90
43607;DHT22;29197;44.788;10.366;2022-11-12T18:26:00;13.90;99.90
43607;DHT22;29197;44.788;10.366;2022-11-12T18:28:52;13.80;99.90
43607;DHT22;29197;44.788;10.366;2022-11-12T18:31:42;13.80;99.90
43607;DHT22;29197;44.788;10.366;2022-11-12T18:34:32;13.80;99.90
43607;DHT22;29197;44.788;10.366;2022-11-12T18:37:22;13.80;99.90
43607;DHT22;29197;44.788;10.366;2022-11-12T18:40:11;13.80;99.90
43607;DHT22;29197;44.788;10.366;2022-11-12T18:43:01;13.80;99.90
43607;DHT22;29197;44.788;10.366;2022-11-12T23:52:45;12.80;99.90
43607;DHT22;29197;44.788;10.366;2022-11-12T23:55:35;12.80;99.90
